AAR3531 RKSI-WARR
Flight info
| Callsign | AAR3531 |
|---|---|
| Flight time | N/A |
| Altitude | 36000 |
| Route | BOPTA2A/33L BOPTA Z51 BEDES Y711 KIDOS Z81 CJU Y572 RUGMA Y579 ESBIS DCT SAPET DCT ENTOK DCT SAKON A582 TELEN M767 TOKON M646 VJN M522 ELANG DCT DOSDO DCT RITBO RITBO1C |
| Aircraft | B744/H-SDE1E2E3FGHIJ3J5M1P1RWXYZ/LB1D1 |
Departure
| Time | N/A |
|---|---|
| Airport | Incheon International Airport (RKSI) |
Arrival
| Time | 2026-04-30 22:14 |
|---|---|
| Airport | Juanda International Airport (WARR) |
| Time | Latitude | Longitude | Altitude | Speed | Heading |
|---|---|---|---|---|---|
| 2026-04-30 22:08 | -7.32285 | 112.53854 | 3552 ft | 235 kts | 155° |
| 2026-04-30 22:08 | -7.33158 | 112.54498 | 3476 ft | 236 kts | 135° |
| 2026-04-30 22:09 | -7.34182 | 112.56335 | 3447 ft | 217 kts | 115° |
| 2026-04-30 22:09 | -7.34492 | 112.57271 | 3357 ft | 209 kts | 109° |
| 2026-04-30 22:09 | -7.34796 | 112.58669 | 3058 ft | 202 kts | 103° |
| 2026-04-30 22:09 | -7.35005 | 112.60063 | 2865 ft | 197 kts | 100° |
| 2026-04-30 22:10 | -7.35188 | 112.61344 | 2689 ft | 173 kts | 101° |
| 2026-04-30 22:10 | -7.35359 | 112.62467 | 2521 ft | 154 kts | 101° |
| 2026-04-30 22:10 | -7.35532 | 112.63558 | 2422 ft | 161 kts | 101° |
| 2026-04-30 22:10 | -7.35709 | 112.64666 | 2297 ft | 160 kts | 101° |
| 2026-04-30 22:11 | -7.36066 | 112.66869 | 2054 ft | 158 kts | 101° |
| 2026-04-30 22:11 | -7.36244 | 112.67965 | 1851 ft | 159 kts | 101° |
| 2026-04-30 22:11 | -7.36422 | 112.69065 | 1636 ft | 159 kts | 101° |
| 2026-04-30 22:12 | -7.36600 | 112.70160 | 1421 ft | 158 kts | 100° |
| 2026-04-30 22:12 | -7.36778 | 112.71258 | 1208 ft | 159 kts | 100° |
| 2026-04-30 22:12 | -7.36957 | 112.72361 | 997 ft | 160 kts | 100° |
| 2026-04-30 22:12 | -7.37144 | 112.73468 | 785 ft | 161 kts | 99° |
| 2026-04-30 22:13 | -7.37316 | 112.74587 | 564 ft | 162 kts | 101° |
| 2026-04-30 22:13 | -7.37497 | 112.75713 | 353 ft | 163 kts | 101° |
| 2026-04-30 22:13 | -7.37682 | 112.76838 | 142 ft | 162 kts | 98° |
| 2026-04-30 22:13 | -7.37862 | 112.77934 | 26 ft | 151 kts | 96° |
| 2026-04-30 22:14 | -7.38006 | 112.78830 | 25 ft | 99 kts | 99° |
| 2026-04-30 22:14 | -7.38084 | 112.79311 | 24 ft | 35 kts | 101° |
| 2026-04-30 22:14 | -7.38158 | 112.79370 | 24 ft | 13 kts | 184° |
| 2026-04-30 22:14 | -7.38248 | 112.79357 | 24 ft | 13 kts | 189° |
| 2026-04-30 22:15 | -7.38335 | 112.79344 | 24 ft | 12 kts | 187° |
| 2026-04-30 22:15 | -7.38418 | 112.79332 | 24 ft | 12 kts | 191° |
| 2026-04-30 22:15 | -7.38485 | 112.79288 | 24 ft | 14 kts | 229° |
| 2026-04-30 22:15 | -7.38543 | 112.79151 | 24 ft | 25 kts | 259° |
| 2026-04-30 22:16 | -7.38552 | 112.78984 | 24 ft | 23 kts | 277° |
| 2026-04-30 22:16 | -7.38519 | 112.78833 | 24 ft | 22 kts | 293° |
| 2026-04-30 22:17 | -7.38352 | 112.78440 | 24 ft | 19 kts | 284° |
| 2026-04-30 22:17 | -7.38321 | 112.78313 | 24 ft | 18 kts | 278° |
| 2026-04-30 22:17 | -7.38271 | 112.78152 | 24 ft | 10 kts | 278° |
| 2026-04-30 22:18 | -7.38261 | 112.78085 | 24 ft | 10 kts | 278° |
| 2026-04-30 22:18 | -7.38252 | 112.78021 | 24 ft | 0 kts | 279° |